Whitehall, Louisiana
Current Conditions -  °F | °C
As of 11:55 AM on Thursday 30 Oct 2014 (Local Time) from KOPL Reporting Station
Clear Clear  
Wind Chill: 69°   Ceiling: Unl
Heat Index: 69°   Visibility: 10mi
Dew Point: 44°   Wind: 7mph
Humidity: 40%   Direction: 80°E
Pressure: 30.14"   Gusts: NA
Location:  30.9328°N, 92.1876°W
Report Text: KOPL 301655Z AUTO 08006KT 10SM CLR 21/07 A3014 RMK AO2 T02060065
Loading
Personal Weather Stations






























Interactive Weather Map
Tropical Storm Tracking
New forecast layout! Learn more

10-Day Weather Forecast

Advertisements
Track Severe Weather on mobile